Time;durP1;ratioP1;P1;durP2;ratioP2;P2;SDS_P1;SDS_P2;PMS_P1;PMS_P2;Temp;Humidity;BMP_temperature;BMP_pressure;BME280_temperature;BME280_humidity;BME280_pressure;Samples;Min_cycle;Max_cycle;Signal;HPM_P1;HPM_P2
2022/06/12 00:01:07;;;;;;;0.77;0.77;;;18.70;99.90;;;;;;5059818;28;20218;-62
2022/06/12 00:03:35;;;;;;;0.95;0.95;;;18.60;99.90;;;;;;5057705;28;20290;-63
2022/06/12 00:06:03;;;;;;;0.98;0.98;;;18.60;99.90;;;;;;5055066;28;20537;-63
2022/06/12 00:08:33;;;;;;;0.85;0.85;;;18.60;99.90;;;;;;5062009;28;20292;-63
2022/06/12 00:11:04;;;;;;;1.10;1.02;;;18.40;99.90;;;;;;5070947;28;20226;-62
2022/06/12 00:13:33;;;;;;;1.02;1.02;;;18.40;99.90;;;;;;5071357;28;20381;-62
2022/06/12 00:16:01;;;;;;;1.08;1.00;;;18.30;99.90;;;;;;5063847;28;20903;-64
2022/06/12 00:18:29;;;;;;;0.90;0.90;;;18.30;99.90;;;;;;5059699;28;20235;-64
2022/06/12 00:23:52;;;;;;;0.90;0.90;;;18.10;99.90;;;;;;5138781;27;20548;-62
2022/06/12 00:26:22;;;;;;;0.90;0.90;;;18.00;99.90;;;;;;5140415;27;20192;-65
2022/06/12 00:28:55;;;;;;;0.82;0.82;;;18.00;99.90;;;;;;5138621;27;20633;-63
2022/06/12 00:31:22;;;;;;;0.82;0.82;;;18.00;99.90;;;;;;5144528;27;20224;-65
2022/06/12 00:33:49;;;;;;;0.88;0.88;;;18.00;99.90;;;;;;5139288;27;20206;-65
2022/06/12 00:36:16;;;;;;;0.90;0.90;;;18.00;99.90;;;;;;5147499;27;20825;-63
2022/06/12 00:38:42;;;;;;;0.90;0.90;;;17.90;99.90;;;;;;5137103;27;20292;-62
2022/06/12 00:41:11;;;;;;;0.90;0.90;;;18.00;99.90;;;;;;5127817;27;20221;-61
2022/06/12 00:43:38;;;;;;;0.75;0.75;;;18.00;99.90;;;;;;5129622;27;20229;-63
2022/06/12 00:46:06;;;;;;;0.85;0.85;;;17.90;99.90;;;;;;5132232;27;20202;-61
2022/06/12 00:48:35;;;;;;;1.27;1.17;;;17.90;99.90;;;;;;5124177;28;20198;-62
2022/06/12 00:51:08;;;;;;;1.02;1.02;;;17.90;99.90;;;;;;5123086;27;20308;-62
2022/06/12 00:53:39;;;;;;;1.02;0.95;;;17.90;99.90;;;;;;5121677;27;20197;-63
2022/06/12 00:56:13;;;;;;;0.90;0.90;;;17.80;99.90;;;;;;5120508;27;20205;-63
2022/06/12 00:58:45;;;;;;;1.00;1.00;;;17.80;99.90;;;;;;5119904;28;20617;-62
2022/06/12 01:01:19;;;;;;;1.02;1.02;;;17.80;99.90;;;;;;5121111;27;20248;-62
2022/06/12 01:06:34;;;;;;;2.25;0.95;;;17.80;99.90;;;;;;5124679;27;20200;-62
2022/06/12 01:09:02;;;;;;;0.98;0.98;;;17.80;99.90;;;;;;5125891;27;20735;-62
2022/06/12 01:11:31;;;;;;;0.82;0.82;;;17.90;99.90;;;;;;5121901;27;20276;-62
2022/06/12 01:13:58;;;;;;;1.00;1.00;;;17.90;99.90;;;;;;5125763;27;20594;-61
2022/06/12 01:16:25;;;;;;;0.90;0.90;;;17.80;99.90;;;;;;5136765;27;20283;-62
2022/06/12 01:18:56;;;;;;;1.10;1.10;;;17.80;99.90;;;;;;5143790;27;20287;-62
2022/06/12 01:21:59;;;;;;;0.80;0.80;;;17.80;99.90;;;;;;5135676;27;20300;-62
2022/06/12 01:24:43;;;;;;;1.00;1.00;;;17.70;99.90;;;;;;5135922;27;20257;-62
2022/06/12 01:27:40;;;;;;;1.10;0.98;;;17.60;99.90;;;;;;5137996;27;20208;-62
2022/06/12 01:30:15;;;;;;;0.90;0.90;;;17.50;99.90;;;;;;5141727;27;20221;-62
2022/06/12 01:32:50;;;;;;;0.80;0.80;;;17.60;99.90;;;;;;5133929;27;20284;-62
2022/06/12 01:35:26;;;;;;;1.00;1.00;;;17.60;99.90;;;;;;5122160;27;20219;-65
2022/06/12 01:37:59;;;;;;;0.90;0.90;;;17.50;99.90;;;;;;5125989;27;20206;-62
2022/06/12 01:40:35;;;;;;;0.90;0.90;;;17.50;99.90;;;;;;5124780;27;20286;-62
2022/06/12 01:43:13;;;;;;;0.90;0.90;;;17.50;99.90;;;;;;5129916;28;20217;-62
2022/06/12 01:45:46;;;;;;;0.80;0.80;;;17.50;99.90;;;;;;5131811;27;20297;-62
2022/06/12 01:48:25;;;;;;;1.45;0.88;;;17.60;99.90;;;;;;5130925;27;20212;-62
2022/06/12 01:51:08;;;;;;;0.95;0.93;;;17.50;99.90;;;;;;5132651;27;20217;-64
2022/06/12 01:53:40;;;;;;;0.80;0.80;;;17.50;99.90;;;;;;5133402;27;20236;-62
2022/06/12 01:56:16;;;;;;;0.82;0.82;;;17.50;99.90;;;;;;5124800;28;20198;-63
2022/06/12 01:58:51;;;;;;;0.80;0.80;;;17.40;99.90;;;;;;5133252;28;20194;-67
2022/06/12 02:01:25;;;;;;;1.00;1.00;;;17.40;99.90;;;;;;5124527;27;20245;-62
2022/06/12 02:03:58;;;;;;;0.88;0.88;;;17.30;99.90;;;;;;5116534;28;20264;-62
2022/06/12 02:06:31;;;;;;;0.90;0.85;;;17.20;99.90;;;;;;5118640;28;20225;-63
2022/06/12 02:09:02;;;;;;;0.90;0.90;;;17.20;99.90;;;;;;5111133;28;20197;-62
2022/06/12 02:14:26;;;;;;;0.80;0.80;;;17.10;99.90;;;;;;5106920;28;20287;-64
2022/06/12 02:16:58;;;;;;;0.90;0.90;;;17.10;99.90;;;;;;5103298;28;20201;-62
2022/06/12 02:19:29;;;;;;;1.00;1.00;;;17.00;99.90;;;;;;5115375;28;20201;-62
2022/06/12 02:22:00;;;;;;;1.30;1.20;;;17.00;99.90;;;;;;5122458;27;20252;-62
2022/06/12 02:24:30;;;;;;;0.90;0.90;;;17.00;99.90;;;;;;5115583;28;20281;-62
2022/06/12 02:27:01;;;;;;;1.00;1.00;;;16.90;99.90;;;;;;5108242;28;20209;-63
2022/06/12 02:29:32;;;;;;;0.90;0.90;;;16.90;99.90;;;;;;5103244;28;20222;-62
2022/06/12 02:32:06;;;;;;;1.00;1.00;;;16.90;99.90;;;;;;5110217;28;20306;-62
2022/06/12 02:34:38;;;;;;;0.80;0.80;;;16.90;99.90;;;;;;5111328;28;20222;-61
2022/06/12 02:37:08;;;;;;;0.80;0.80;;;16.90;99.90;;;;;;5110568;27;20277;-63
2022/06/12 02:39:40;;;;;;;1.00;0.93;;;16.90;99.90;;;;;;5103902;28;20590;-62
2022/06/12 02:42:12;;;;;;;1.00;1.00;;;16.90;99.90;;;;;;5102024;28;20233;-63
2022/06/12 02:44:43;;;;;;;1.25;1.20;;;16.90;99.90;;;;;;5101530;28;20293;-61
2022/06/12 02:47:15;;;;;;;0.85;0.85;;;16.90;99.90;;;;;;5100620;28;20681;-62
2022/06/12 02:49:46;;;;;;;0.90;0.90;;;16.90;99.90;;;;;;5100008;28;20202;-62
2022/06/12 02:52:19;;;;;;;1.00;1.00;;;16.90;99.90;;;;;;5108334;28;20194;-62
2022/06/12 02:54:54;;;;;;;0.95;0.95;;;17.00;99.90;;;;;;5102699;28;20202;-61
2022/06/12 02:57:30;;;;;;;1.10;1.10;;;17.00;99.90;;;;;;5096765;28;20198;-61
2022/06/12 03:00:14;;;;;;;0.90;0.90;;;16.90;99.90;;;;;;5102533;28;20216;-62
2022/06/12 03:02:53;;;;;;;0.98;0.98;;;16.90;99.90;;;;;;5095802;28;20222;-62
2022/06/12 03:05:24;;;;;;;0.95;0.95;;;16.90;99.90;;;;;;5107248;28;20289;-62
2022/06/12 03:07:55;;;;;;;0.88;0.88;;;16.80;99.90;;;;;;5099219;28;20301;-62
2022/06/12 03:10:27;;;;;;;0.88;0.88;;;16.80;99.90;;;;;;5110041;28;20304;-62
2022/06/12 03:12:55;;;;;;;0.90;0.90;;;16.70;99.90;;;;;;5099013;28;20359;-61
2022/06/12 03:15:44;;;;;;;0.90;0.90;;;16.70;99.90;;;;;;5098985;28;20198;-62
2022/06/12 03:18:16;;;;;;;1.00;1.00;;;16.70;99.90;;;;;;5093998;28;20786;-61
2022/06/12 03:20:58;;;;;;;1.00;1.00;;;16.70;99.90;;;;;;5101263;28;20245;-62
2022/06/12 03:23:38;;;;;;;0.90;0.90;;;16.70;99.90;;;;;;5099841;28;20229;-61
2022/06/12 03:26:09;;;;;;;0.90;0.90;;;16.70;99.90;;;;;;5098910;28;20281;-64
2022/06/12 03:28:46;;;;;;;0.80;0.80;;;16.70;99.90;;;;;;5101814;28;20194;-63
2022/06/12 03:31:20;;;;;;;0.88;0.88;;;16.70;99.90;;;;;;5103171;28;20237;-61
2022/06/12 03:33:57;;;;;;;1.00;1.00;;;16.70;99.90;;;;;;5097662;28;20272;-63
2022/06/12 03:36:29;;;;;;;1.00;1.00;;;16.70;99.90;;;;;;5101640;28;20213;-61
2022/06/12 03:39:01;;;;;;;0.70;0.70;;;16.60;99.90;;;;;;5097772;28;20229;-62
2022/06/12 03:41:35;;;;;;;0.82;0.82;;;16.60;99.90;;;;;;5101070;28;20275;-61
2022/06/12 03:44:12;;;;;;;0.90;0.90;;;16.60;99.90;;;;;;5104364;28;20241;-62
2022/06/12 03:46:44;;;;;;;0.90;0.90;;;16.60;99.90;;;;;;5101584;28;20209;-62
2022/06/12 03:49:20;;;;;;;0.80;0.80;;;16.60;99.90;;;;;;5108838;28;20245;-62
2022/06/12 03:51:53;;;;;;;1.00;1.00;;;16.60;99.90;;;;;;5104897;28;20300;-62
2022/06/12 03:54:25;;;;;;;1.02;1.02;;;16.60;99.90;;;;;;5111817;28;20295;-62
2022/06/12 03:59:45;;;;;;;1.20;1.10;;;16.50;99.90;;;;;;5082655;28;20273;-64
2022/06/12 04:02:18;;;;;;;1.00;0.90;;;16.50;99.90;;;;;;5102905;28;20243;-63
2022/06/12 04:04:49;;;;;;;0.85;0.85;;;16.40;99.90;;;;;;5109291;27;20700;-64
2022/06/12 04:07:18;;;;;;;1.15;1.15;;;16.40;99.90;;;;;;5107576;28;20241;-64
2022/06/12 04:09:47;;;;;;;0.90;0.90;;;16.40;99.90;;;;;;5107408;28;20317;-63
2022/06/12 04:12:19;;;;;;;0.90;0.90;;;16.40;99.90;;;;;;5114119;27;20290;-63
2022/06/12 04:14:55;;;;;;;0.93;0.88;;;16.40;99.90;;;;;;5102335;28;20201;-63
2022/06/12 04:17:23;;;;;;;1.00;1.00;;;16.30;99.90;;;;;;5114880;27;20210;-63
2022/06/12 04:22:47;;;;;;;0.98;0.98;;;16.30;99.90;;;;;;5110758;28;20572;-63
2022/06/12 04:25:33;;;;;;;1.00;1.00;;;16.30;99.90;;;;;;5109378;28;20285;-64
2022/06/12 04:28:01;;;;;;;0.80;0.80;;;16.30;99.90;;;;;;5103852;28;20198;-63
2022/06/12 04:30:31;;;;;;;1.05;1.05;;;16.30;99.90;;;;;;5108218;28;20225;-62
2022/06/12 04:33:19;;;;;;;0.90;0.90;;;16.20;99.90;;;;;;5109060;28;20708;-62
2022/06/12 04:35:51;;;;;;;1.15;1.15;;;16.20;99.90;;;;;;5102974;28;20198;-63
2022/06/12 04:38:19;;;;;;;0.90;0.90;;;16.30;99.90;;;;;;5105138;28;20198;-63
2022/06/12 04:40:46;;;;;;;0.90;0.90;;;16.40;99.90;;;;;;5106937;28;20210;-64
2022/06/12 04:43:13;;;;;;;0.95;0.95;;;16.50;99.90;;;;;;5109406;28;20312;-63
2022/06/12 04:45:41;;;;;;;0.93;0.93;;;16.60;99.90;;;;;;5108543;28;20281;-62
2022/06/12 04:48:12;;;;;;;1.20;1.10;;;16.70;99.90;;;;;;5109761;28;20239;-63
2022/06/12 04:50:40;;;;;;;0.90;0.90;;;16.80;99.90;;;;;;5115908;28;20627;-63
2022/06/12 04:53:08;;;;;;;0.90;0.90;;;16.90;99.90;;;;;;5108333;28;20193;-62
2022/06/12 04:55:35;;;;;;;0.90;0.90;;;17.10;99.90;;;;;;5102255;28;20251;-62
2022/06/12 04:58:04;;;;;;;0.70;0.70;;;17.20;99.90;;;;;;5108749;28;20240;-62
2022/06/12 05:00:30;;;;;;;0.90;0.90;;;17.20;99.90;;;;;;5107627;28;20317;-61
2022/06/12 05:02:57;;;;;;;2.40;1.15;;;17.30;99.90;;;;;;5101411;28;20228;-62
2022/06/12 05:05:25;;;;;;;1.10;1.00;;;17.40;99.90;;;;;;5102456;28;20232;-62
2022/06/12 05:07:52;;;;;;;0.73;0.73;;;17.60;99.90;;;;;;5109508;28;20229;-62
2022/06/12 05:10:20;;;;;;;1.08;1.00;;;17.70;99.90;;;;;;5105037;28;20222;-62
2022/06/12 05:12:47;;;;;;;0.90;0.90;;;18.00;99.90;;;;;;5121225;27;20300;-62
2022/06/12 05:15:14;;;;;;;0.80;0.80;;;18.10;99.90;;;;;;5113884;28;20288;-64
2022/06/12 05:17:41;;;;;;;0.90;0.90;;;18.30;99.90;;;;;;5115029;28;20289;-63
2022/06/12 05:20:14;;;;;;;0.93;0.93;;;18.50;99.90;;;;;;5122218;27;20226;-62
2022/06/12 05:22:41;;;;;;;2.10;1.10;;;18.70;99.90;;;;;;5113248;28;20206;-63
2022/06/12 05:25:09;;;;;;;0.75;0.75;;;18.90;99.90;;;;;;5112640;28;20809;-63
2022/06/12 05:27:37;;;;;;;0.90;0.90;;;19.10;99.90;;;;;;5116481;27;20216;-63
2022/06/12 05:30:06;;;;;;;0.90;0.90;;;19.30;99.90;;;;;;5120579;27;20206;-62
2022/06/12 05:32:34;;;;;;;1.00;1.00;;;19.50;99.90;;;;;;5113609;28;20609;-63
2022/06/12 05:35:01;;;;;;;0.82;0.82;;;19.70;99.90;;;;;;5119097;27;20277;-63
2022/06/12 05:37:28;;;;;;;0.73;0.73;;;19.90;99.90;;;;;;5112451;28;20202;-64
2022/06/12 05:39:55;;;;;;;1.08;1.08;;;20.10;99.90;;;;;;5106685;28;20568;-64
2022/06/12 05:42:22;;;;;;;0.82;0.82;;;20.30;99.90;;;;;;5113239;28;20645;-63
2022/06/12 05:44:50;;;;;;;0.70;0.70;;;20.40;99.90;;;;;;5105697;28;20213;-63
2022/06/12 05:47:18;;;;;;;0.95;0.93;;;20.60;99.90;;;;;;5114249;28;20288;-63
2022/06/12 05:49:45;;;;;;;1.10;1.00;;;20.80;99.90;;;;;;5102031;28;20194;-63
2022/06/12 05:52:12;;;;;;;0.90;0.90;;;21.00;99.90;;;;;;5115631;27;20224;-63
2022/06/12 05:54:39;;;;;;;0.82;0.82;;;21.20;99.90;;;;;;5118015;28;20236;-64
2022/06/12 05:57:06;;;;;;;1.33;1.02;;;21.20;99.90;;;;;;5116914;27;20255;-63
2022/06/12 05:59:34;;;;;;;1.05;1.05;;;21.30;99.90;;;;;;5121025;28;20206;-63
2022/06/12 06:02:02;;;;;;;0.85;0.85;;;21.40;99.90;;;;;;5133525;27;20222;-64
2022/06/12 06:04:29;;;;;;;1.10;1.10;;;21.50;99.90;;;;;;5131741;28;20222;-63
2022/06/12 06:06:58;;;;;;;0.90;0.90;;;21.60;99.90;;;;;;5126383;27;20213;-63
2022/06/12 06:09:26;;;;;;;1.02;1.00;;;21.70;99.90;;;;;;5111609;27;20209;-63
2022/06/12 06:11:53;;;;;;;1.27;1.15;;;21.80;99.90;;;;;;5112076;28;20230;-63
2022/06/12 06:14:21;;;;;;;1.00;1.00;;;22.00;99.90;;;;;;5104694;28;20205;-64
2022/06/12 06:16:48;;;;;;;0.85;0.85;;;22.00;99.90;;;;;;5111467;27;20198;-62
2022/06/12 06:19:17;;;;;;;0.95;0.95;;;22.10;99.90;;;;;;5115396;27;20198;-63
2022/06/12 06:21:45;;;;;;;1.30;0.90;;;22.20;99.90;;;;;;5113635;27;20286;-64
2022/06/12 06:24:12;;;;;;;1.10;1.10;;;22.20;99.90;;;;;;5109546;28;20206;-62
2022/06/12 06:26:40;;;;;;;0.95;0.95;;;22.30;99.90;;;;;;5109799;27;20293;-62
2022/06/12 06:29:08;;;;;;;1.10;1.10;;;22.40;99.90;;;;;;5114041;27;20282;-64
2022/06/12 06:31:35;;;;;;;1.20;1.10;;;22.50;99.90;;;;;;5107159;27;20217;-64
2022/06/12 06:34:02;;;;;;;0.90;0.90;;;22.50;99.90;;;;;;5101592;27;20228;-64
2022/06/12 06:36:31;;;;;;;1.10;1.10;;;22.60;99.90;;;;;;5102269;27;20676;-64
2022/06/12 06:38:58;;;;;;;0.98;0.98;;;22.60;99.90;;;;;;5107793;27;20202;-63
2022/06/12 06:41:26;;;;;;;1.20;1.20;;;22.80;99.90;;;;;;5118373;27;20354;-64
2022/06/12 06:46:39;;;;;;;1.27;1.10;;;22.80;99.90;;;;;;5100423;27;20214;-63
2022/06/12 06:49:06;;;;;;;0.90;0.90;;;22.80;99.90;;;;;;5110997;27;20293;-64
2022/06/12 06:51:34;;;;;;;1.00;1.00;;;22.90;99.90;;;;;;5103618;27;20223;-63
2022/06/12 06:54:02;;;;;;;1.20;1.20;;;23.00;99.90;;;;;;5099045;28;20278;-64
2022/06/12 06:56:29;;;;;;;1.38;1.05;;;23.00;99.90;;;;;;5104231;27;20237;-62
2022/06/12 06:58:56;;;;;;;1.20;1.10;;;23.00;99.90;;;;;;5103944;28;20258;-63
2022/06/12 07:01:23;;;;;;;1.58;1.10;;;23.10;99.90;;;;;;5101851;28;20217;-64
2022/06/12 07:03:52;;;;;;;1.00;1.00;;;23.10;99.90;;;;;;5106157;28;20224;-63
2022/06/12 07:06:20;;;;;;;1.33;1.20;;;23.30;99.90;;;;;;5108382;28;20236;-62
2022/06/12 07:08:48;;;;;;;1.23;1.23;;;23.40;99.90;;;;;;5100524;28;20289;-65
2022/06/12 07:11:15;;;;;;;0.90;0.90;;;23.60;99.90;;;;;;5103672;27;20304;-64
2022/06/12 07:13:42;;;;;;;1.58;1.10;;;23.70;99.90;;;;;;5114410;27;20190;-64
2022/06/12 07:16:09;;;;;;;1.17;1.17;;;23.60;99.90;;;;;;5103957;28;20199;-63
2022/06/12 07:18:36;;;;;;;1.30;1.17;;;23.50;99.90;;;;;;5114219;27;20285;-62
2022/06/12 07:21:03;;;;;;;1.00;1.00;;;23.60;99.90;;;;;;5116456;27;20226;-63
2022/06/12 07:23:32;;;;;;;1.48;1.15;;;23.70;99.90;;;;;;5113834;27;20213;-62
2022/06/12 07:26:04;;;;;;;1.00;1.00;;;23.60;99.90;;;;;;5122146;27;20259;-63
2022/06/12 07:28:32;;;;;;;0.98;0.98;;;23.70;99.90;;;;;;5122499;27;20193;-63
2022/06/12 07:30:58;;;;;;;1.10;1.10;;;23.90;99.90;;;;;;5127734;27;20229;-64
2022/06/12 07:33:26;;;;;;;1.23;1.20;;;24.00;99.90;;;;;;5116591;27;20202;-64
2022/06/12 07:35:53;;;;;;;1.15;1.05;;;24.10;99.90;;;;;;5121473;27;20189;-64
2022/06/12 07:38:23;;;;;;;1.10;1.10;;;24.20;99.90;;;;;;5125682;27;20284;-63
2022/06/12 07:40:52;;;;;;;1.20;1.10;;;24.00;99.90;;;;;;5114869;27;20217;-63
2022/06/12 07:43:22;;;;;;;1.20;1.10;;;24.10;99.90;;;;;;5124819;27;20193;-62
2022/06/12 07:45:51;;;;;;;1.10;1.10;;;24.20;99.90;;;;;;5118791;27;20308;-61
2022/06/12 07:48:18;;;;;;;1.20;1.20;;;24.50;99.90;;;;;;5122267;27;20209;-62
2022/06/12 07:50:47;;;;;;;1.10;1.10;;;24.60;99.90;;;;;;5121134;27;20800;-61
2022/06/12 07:53:16;;;;;;;0.90;0.90;;;24.80;99.90;;;;;;5116286;27;20198;-62
2022/06/12 07:55:44;;;;;;;1.05;1.05;;;24.80;99.90;;;;;;5106923;27;20644;-63
2022/06/12 07:58:11;;;;;;;1.10;1.10;;;24.80;99.90;;;;;;5117977;27;20244;-61
2022/06/12 08:00:41;;;;;;;1.08;1.08;;;24.80;99.90;;;;;;5121761;27;20265;-62
2022/06/12 08:03:09;;;;;;;1.10;1.10;;;24.90;99.90;;;;;;5123208;27;20197;-63
2022/06/12 08:05:36;;;;;;;1.40;1.00;;;25.10;99.90;;;;;;5132490;27;20540;-63
2022/06/12 08:08:03;;;;;;;1.20;1.00;;;25.00;99.90;;;;;;5129704;27;20252;-61
2022/06/12 08:10:30;;;;;;;1.15;1.13;;;24.90;99.90;;;;;;5124931;27;20225;-62
2022/06/12 08:12:57;;;;;;;1.15;1.15;;;24.90;99.90;;;;;;5124562;27;20197;-62
2022/06/12 08:15:27;;;;;;;2.28;1.23;;;24.90;99.90;;;;;;5127593;27;20220;-63
2022/06/12 08:17:56;;;;;;;0.90;0.90;;;25.00;99.90;;;;;;5130051;27;20304;-63
2022/06/12 08:20:27;;;;;;;1.02;1.02;;;25.00;99.90;;;;;;5124208;27;20218;-63
2022/06/12 08:22:57;;;;;;;1.10;1.10;;;25.10;99.90;;;;;;5109610;22;20740;-67
2022/06/12 08:25:24;;;;;;;1.15;1.15;;;25.30;99.90;;;;;;5052791;28;20255;-67
2022/06/12 08:27:52;;;;;;;1.30;1.23;;;25.50;99.90;;;;;;5059476;28;20195;-67
2022/06/12 08:30:19;;;;;;;1.20;1.20;;;25.40;99.90;;;;;;5056144;28;20204;-68
2022/06/12 08:32:50;;;;;;;1.02;1.02;;;25.60;99.90;;;;;;5063799;28;20223;-68
2022/06/12 08:35:23;;;;;;;1.30;1.20;;;25.70;99.90;;;;;;5070199;28;20206;-66
2022/06/12 08:37:50;;;;;;;1.15;1.10;;;25.80;99.90;;;;;;5065383;28;20210;-66
2022/06/12 08:40:28;;;;;;;0.90;0.90;;;25.90;99.90;;;;;;5074377;28;20229;-68
2022/06/12 08:43:03;;;;;;;0.90;0.90;;;25.80;99.90;;;;;;5067064;28;20219;-67
2022/06/12 08:45:37;;;;;;;0.90;0.90;;;25.70;99.90;;;;;;5072712;28;20213;-66
2022/06/12 08:48:09;;;;;;;0.95;0.93;;;25.90;99.90;;;;;;5076887;28;20203;-67
2022/06/12 08:50:43;;;;;;;0.95;0.95;;;26.00;99.90;;;;;;5072394;28;20200;-69
2022/06/12 08:53:17;;;;;;;0.95;0.95;;;26.20;99.90;;;;;;5066671;28;20245;-68
2022/06/12 08:55:49;;;;;;;1.10;1.00;;;26.40;99.90;;;;;;5068085;28;20673;-66
2022/06/12 08:58:20;;;;;;;1.08;0.98;;;26.50;99.90;;;;;;5075960;28;20261;-66
2022/06/12 09:00:47;;;;;;;1.10;1.10;;;26.70;99.90;;;;;;5069032;28;20210;-65
2022/06/12 09:03:17;;;;;;;1.10;1.02;;;26.70;99.90;;;;;;5064726;28;20402;-66
2022/06/12 09:05:52;;;;;;;1.00;1.00;;;26.80;99.90;;;;;;5064390;28;20322;-65
2022/06/12 09:08:29;;;;;;;1.00;1.00;;;26.90;99.90;;;;;;5069397;28;20205;-66
2022/06/12 09:11:04;;;;;;;1.25;1.15;;;27.10;99.90;;;;;;5072809;28;20225;-66
2022/06/12 09:13:39;;;;;;;1.00;1.00;;;27.30;99.90;;;;;;5068171;28;20599;-66
2022/06/12 09:16:14;;;;;;;1.02;1.02;;;27.40;99.90;;;;;;5064629;28;20195;-67
2022/06/12 09:18:49;;;;;;;1.00;1.00;;;27.50;99.90;;;;;;5061363;28;20290;-67
2022/06/12 09:21:23;;;;;;;1.00;1.00;;;27.40;99.90;;;;;;5070205;28;20236;-65
2022/06/12 09:24:01;;;;;;;1.17;1.10;;;27.40;99.90;;;;;;5071911;28;20777;-67
2022/06/12 09:26:37;;;;;;;1.08;1.08;;;27.40;99.90;;;;;;5062367;28;20222;-66
2022/06/12 09:29:14;;;;;;;1.05;1.05;;;27.40;99.90;;;;;;5062598;28;20203;-66
2022/06/12 09:31:49;;;;;;;0.90;0.90;;;27.50;99.90;;;;;;5066480;28;20234;-65
2022/06/12 09:34:26;;;;;;;1.38;1.27;;;27.60;99.90;;;;;;5076171;28;20211;-65
2022/06/12 09:40:02;;;;;;;1.13;1.13;;;27.70;99.90;;;;;;5074106;28;20201;-67
2022/06/12 09:42:38;;;;;;;0.98;0.95;;;27.80;99.90;;;;;;5073808;28;20219;-67
2022/06/12 09:45:16;;;;;;;0.98;0.98;;;27.90;99.90;;;;;;5074016;28;20222;-66
2022/06/12 09:47:47;;;;;;;1.10;1.10;;;27.90;99.90;;;;;;5067702;28;20239;-66
2022/06/12 09:50:26;;;;;;;1.13;1.05;;;27.90;99.90;;;;;;5066344;28;20563;-67
2022/06/12 09:53:08;;;;;;;1.15;1.15;;;27.80;99.90;;;;;;5059370;28;20222;-68
2022/06/12 09:55:40;;;;;;;1.17;1.08;;;27.70;99.90;;;;;;5082733;28;20273;-66
2022/06/12 09:58:12;;;;;;;0.90;0.90;;;27.70;99.90;;;;;;5088711;28;20735;-65
2022/06/12 10:00:46;;;;;;;1.10;1.10;;;27.80;99.90;;;;;;5082640;28;20196;-68
2022/06/12 10:03:20;;;;;;;2.22;1.05;;;27.90;99.90;;;;;;5083723;28;20250;-67
2022/06/12 10:05:53;;;;;;;1.17;1.10;;;28.10;99.90;;;;;;5074648;28;20715;-66
2022/06/12 10:08:28;;;;;;;0.88;0.85;;;28.20;99.90;;;;;;5071540;28;20215;-67
2022/06/12 10:10:58;;;;;;;1.00;1.00;;;28.30;99.90;;;;;;5070767;28;20200;-67
2022/06/12 10:13:31;;;;;;;1.00;1.00;;;28.50;99.90;;;;;;5072069;28;20291;-65
2022/06/12 10:16:04;;;;;;;0.93;0.93;;;28.60;99.90;;;;;;5061028;28;20204;-66
2022/06/12 10:18:39;;;;;;;1.40;1.30;;;28.50;99.90;;;;;;5065216;28;20211;-66
2022/06/12 10:21:10;;;;;;;1.15;1.13;;;28.50;99.90;;;;;;5058556;28;20215;-67
2022/06/12 10:23:39;;;;;;;1.10;1.10;;;28.60;99.90;;;;;;5058368;28;20384;-66
2022/06/12 10:26:16;;;;;;;0.80;0.80;;;28.70;99.90;;;;;;5063868;28;20318;-66
2022/06/12 10:28:44;;;;;;;0.95;0.95;;;28.70;99.90;;;;;;5068899;28;20284;-67
2022/06/12 10:31:21;;;;;;;1.00;1.00;;;28.80;99.90;;;;;;5063185;28;20237;-66
2022/06/12 10:33:52;;;;;;;0.90;0.90;;;28.80;99.90;;;;;;5057333;28;20283;-66
2022/06/12 10:36:24;;;;;;;1.30;1.10;;;28.90;99.90;;;;;;5068706;28;20196;-65
2022/06/12 10:39:02;;;;;;;1.20;0.90;;;29.10;99.90;;;;;;5079151;28;20448;-66
2022/06/12 10:41:42;;;;;;;0.80;0.80;;;29.10;99.90;;;;;;5084353;28;20195;-66
2022/06/12 10:44:37;;;;;;;0.70;0.70;;;28.90;99.90;;;;;;5076013;28;20631;-67
2022/06/12 10:47:20;;;;;;;0.95;0.95;;;29.00;99.90;;;;;;5061762;28;20579;-67
2022/06/12 10:49:48;;;;;;;1.40;1.30;;;29.00;99.90;;;;;;5071489;28;20203;-66
2022/06/12 10:52:19;;;;;;;1.67;1.08;;;29.20;99.90;;;;;;5072381;28;20227;-66
2022/06/12 10:54:49;;;;;;;1.50;0.90;;;29.30;99.90;;;;;;5073085;28;20268;-67
2022/06/12 10:57:35;;;;;;;0.88;0.88;;;29.50;99.90;;;;;;5076256;28;20302;-67
2022/06/12 11:00:05;;;;;;;0.90;0.90;;;29.50;99.90;;;;;;5065097;28;20629;-66
2022/06/12 11:02:57;;;;;;;0.90;0.90;;;29.50;99.90;;;;;;5072936;28;20219;-65
2022/06/12 11:05:42;;;;;;;0.95;0.95;;;29.50;99.90;;;;;;5066433;28;20273;-66
2022/06/12 11:08:33;;;;;;;0.80;0.80;;;29.70;99.90;;;;;;5067328;28;20201;-67
2022/06/12 11:11:10;;;;;;;1.55;1.00;;;29.90;99.90;;;;;;5063784;28;20222;-65
2022/06/12 11:13:55;;;;;;;0.82;0.82;;;29.90;99.90;;;;;;5074261;28;20317;-67
2022/06/12 11:16:40;;;;;;;1.10;1.10;;;29.80;99.90;;;;;;5072462;28;20227;-67
2022/06/12 11:19:29;;;;;;;1.00;0.90;;;29.60;99.90;;;;;;5069527;28;20207;-69
2022/06/12 11:22:05;;;;;;;0.90;0.90;;;29.40;99.90;;;;;;5066475;28;20233;-66
2022/06/12 11:24:39;;;;;;;0.90;0.90;;;29.50;99.90;;;;;;5072040;28;20203;-67
2022/06/12 11:27:26;;;;;;;2.10;1.05;;;29.50;99.90;;;;;;5077298;28;20238;-65
2022/06/12 11:30:06;;;;;;;0.90;0.90;;;29.60;99.90;;;;;;5069982;28;20227;-67
2022/06/12 11:32:48;;;;;;;0.90;0.90;;;29.90;99.90;;;;;;5074370;28;20219;-67
2022/06/12 11:35:27;;;;;;;0.93;0.93;;;30.10;99.90;;;;;;5073228;28;20215;-67
2022/06/12 11:38:19;;;;;;;1.10;0.80;;;29.90;99.90;;;;;;5073606;28;20287;-67
2022/06/12 11:40:54;;;;;;;0.90;0.90;;;29.90;99.90;;;;;;5065546;28;20294;-67
2022/06/12 11:43:30;;;;;;;0.82;0.82;;;29.60;99.90;;;;;;5081839;28;20693;-67
2022/06/12 11:46:08;;;;;;;0.80;0.80;;;29.70;99.90;;;;;;5065284;28;20304;-67
2022/06/12 11:49:00;;;;;;;0.90;0.90;;;29.90;99.90;;;;;;5072531;28;20705;-68
2022/06/12 11:51:35;;;;;;;0.93;0.93;;;29.90;99.90;;;;;;5074488;28;20242;-67
2022/06/12 11:54:24;;;;;;;0.90;0.90;;;29.90;99.90;;;;;;5077695;28;20285;-66
2022/06/12 11:56:58;;;;;;;0.98;0.98;;;30.00;99.90;;;;;;5066056;28;20206;-67
2022/06/12 11:59:35;;;;;;;0.90;0.90;;;30.30;99.90;;;;;;5078224;28;20245;-66
2022/06/12 12:02:09;;;;;;;0.80;0.80;;;30.30;99.90;;;;;;5073741;28;20254;-67
2022/06/12 12:04:57;;;;;;;0.90;0.90;;;30.10;99.90;;;;;;5071106;28;20649;-65
2022/06/12 12:07:43;;;;;;;0.80;0.80;;;30.30;99.90;;;;;;5074139;28;20203;-67
2022/06/12 12:10:34;;;;;;;1.17;0.90;;;30.50;99.90;;;;;;5082711;28;20198;-69
2022/06/12 12:13:05;;;;;;;0.90;0.90;;;30.40;99.90;;;;;;5086584;28;20227;-66
2022/06/12 12:15:39;;;;;;;0.90;0.90;;;30.40;99.90;;;;;;5073116;28;20241;-66
2022/06/12 12:18:14;;;;;;;0.77;0.77;;;30.50;99.90;;;;;;5072203;28;20725;-66
2022/06/12 12:20:44;;;;;;;0.70;0.70;;;30.40;99.90;;;;;;5074659;28;20282;-67
2022/06/12 12:23:16;;;;;;;0.82;0.82;;;30.60;99.90;;;;;;5072935;28;20524;-67
2022/06/12 12:25:49;;;;;;;0.80;0.80;;;30.70;99.90;;;;;;5074998;28;20223;-68
2022/06/12 12:28:23;;;;;;;0.90;0.90;;;30.80;99.90;;;;;;5070756;28;20283;-67
2022/06/12 12:30:55;;;;;;;0.70;0.70;;;30.80;99.90;;;;;;5062292;28;20235;-65
2022/06/12 12:33:22;;;;;;;1.00;1.00;;;31.00;99.90;;;;;;5058568;28;20220;-64
2022/06/12 12:41:26;;;;;;;1.05;0.95;;;30.70;99.90;;;;;;5075399;28;20210;-64
2022/06/12 12:43:57;;;;;;;1.00;1.00;;;30.70;99.90;;;;;;5074576;28;20206;-68
2022/06/12 12:46:39;;;;;;;0.75;0.75;;;30.70;99.90;;;;;;5069093;28;20602;-66
2022/06/12 12:49:07;;;;;;;0.70;0.70;;;30.70;99.90;;;;;;5061542;28;20235;-67
2022/06/12 12:51:36;;;;;;;0.65;0.65;;;30.80;99.90;;;;;;5074647;28;20215;-67
2022/06/12 12:54:11;;;;;;;1.00;1.00;;;31.00;99.90;;;;;;5076377;28;20290;-67
2022/06/12 12:56:50;;;;;;;1.08;1.08;;;31.00;99.90;;;;;;5073289;28;20278;-67
2022/06/12 12:59:19;;;;;;;0.90;0.90;;;30.80;99.90;;;;;;5074033;28;20708;-66
2022/06/12 13:01:50;;;;;;;1.20;1.10;;;30.60;99.90;;;;;;5075103;28;20215;-66
2022/06/12 13:04:19;;;;;;;0.98;0.98;;;30.50;99.90;;;;;;5070504;28;20210;-68
2022/06/12 13:07:03;;;;;;;1.00;1.00;;;30.60;99.90;;;;;;5075066;28;20219;-66
2022/06/12 13:10:00;;;;;;;0.75;0.75;;;30.50;99.90;;;;;;5066996;28;20665;-66
2022/06/12 13:12:59;;;;;;;0.77;0.77;;;30.50;99.90;;;;;;5071925;28;20310;-67
2022/06/12 13:15:42;;;;;;;0.70;0.70;;;30.70;99.90;;;;;;5075047;28;20285;-68
2022/06/12 13:18:23;;;;;;;1.27;0.65;;;30.90;99.90;;;;;;5071565;28;20618;-68
2022/06/12 13:20:59;;;;;;;0.75;0.75;;;30.90;99.90;;;;;;5072097;28;20262;-65
2022/06/12 13:23:40;;;;;;;0.80;0.80;;;31.00;99.90;;;;;;5071686;28;20258;-67
2022/06/12 13:26:11;;;;;;;0.90;0.90;;;31.10;99.90;;;;;;5067708;28;20320;-66
2022/06/12 13:28:38;;;;;;;0.80;0.80;;;31.20;99.90;;;;;;5072710;28;20265;-67
2022/06/12 13:31:06;;;;;;;0.68;0.68;;;31.10;99.90;;;;;;5070568;28;20286;-66
2022/06/12 13:33:35;;;;;;;0.90;0.90;;;30.80;99.90;;;;;;5075963;28;20254;-66
2022/06/12 13:36:06;;;;;;;0.88;0.88;;;30.80;99.90;;;;;;5074462;28;20279;-66
2022/06/12 13:38:36;;;;;;;0.65;0.65;;;30.80;99.90;;;;;;5075005;28;20290;-66
2022/06/12 13:41:07;;;;;;;0.80;0.80;;;30.80;99.90;;;;;;5074874;28;20211;-67